sensor_id;sensor_type;location;lat;lon;timestamp;pressure;altitude;pressure_sealevel;temperature;humidity
79645;BME280;69117;47.148;18.954;2024-01-27T00:00:54;101042.97;;;7.07;100.00
79645;BME280;69117;47.148;18.954;2024-01-27T00:03:56;101050.22;;;7.04;100.00
79645;BME280;69117;47.148;18.954;2024-01-27T00:06:57;101038.34;;;6.98;100.00
79645;BME280;69117;47.148;18.954;2024-01-27T00:10:01;101063.78;;;6.98;100.00
79645;BME280;69117;47.148;18.954;2024-01-27T00:13:03;101065.56;;;7.10;100.00
79645;BME280;69117;47.148;18.954;2024-01-27T00:16:05;101066.09;;;7.02;100.00
79645;BME280;69117;47.148;18.954;2024-01-27T00:19:06;101052.03;;;7.16;100.00
79645;BME280;69117;47.148;18.954;2024-01-27T00:22:08;101034.34;;;6.93;100.00
79645;BME280;69117;47.148;18.954;2024-01-27T00:25:11;101059.91;;;6.91;100.00
79645;BME280;69117;47.148;18.954;2024-01-27T00:28:13;101059.69;;;6.94;100.00
79645;BME280;69117;47.148;18.954;2024-01-27T00:31:15;101062.72;;;6.87;100.00
79645;BME280;69117;47.148;18.954;2024-01-27T00:34:16;101063.34;;;6.78;100.00
79645;BME280;69117;47.148;18.954;2024-01-27T00:37:19;101051.81;;;6.81;100.00
79645;BME280;69117;47.148;18.954;2024-01-27T00:40:21;101068.25;;;6.70;100.00
79645;BME280;69117;47.148;18.954;2024-01-27T00:43:24;101063.22;;;6.67;100.00
79645;BME280;69117;47.148;18.954;2024-01-27T00:46:25;101065.84;;;6.67;100.00
79645;BME280;69117;47.148;18.954;2024-01-27T00:49:27;101085.25;;;6.64;100.00
79645;BME280;69117;47.148;18.954;2024-01-27T00:52:29;101101.91;;;6.51;100.00
79645;BME280;69117;47.148;18.954;2024-01-27T00:55:31;101088.25;;;6.46;100.00
79645;BME280;69117;47.148;18.954;2024-01-27T00:58:33;101109.78;;;6.51;100.00
79645;BME280;69117;47.148;18.954;2024-01-27T01:01:35;101111.41;;;6.66;100.00
79645;BME280;69117;47.148;18.954;2024-01-27T01:04:37;101091.09;;;6.55;100.00
79645;BME280;69117;47.148;18.954;2024-01-27T01:07:39;101083.19;;;6.42;100.00
79645;BME280;69117;47.148;18.954;2024-01-27T01:10:40;101076.75;;;6.34;100.00
79645;BME280;69117;47.148;18.954;2024-01-27T01:13:42;101075.59;;;6.38;100.00
79645;BME280;69117;47.148;18.954;2024-01-27T01:16:44;101097.34;;;6.40;100.00
79645;BME280;69117;47.148;18.954;2024-01-27T01:19:45;101084.97;;;6.15;100.00
79645;BME280;69117;47.148;18.954;2024-01-27T01:22:47;101095.22;;;6.32;100.00
79645;BME280;69117;47.148;18.954;2024-01-27T01:25:49;101087.44;;;6.31;100.00
79645;BME280;69117;47.148;18.954;2024-01-27T01:28:51;101112.47;;;6.36;100.00
79645;BME280;69117;47.148;18.954;2024-01-27T01:31:53;101118.09;;;6.30;100.00
79645;BME280;69117;47.148;18.954;2024-01-27T01:34:55;101116.59;;;6.26;100.00
79645;BME280;69117;47.148;18.954;2024-01-27T01:37:59;101133.72;;;6.32;100.00
79645;BME280;69117;47.148;18.954;2024-01-27T01:41:01;101148.38;;;6.22;100.00
79645;BME280;69117;47.148;18.954;2024-01-27T01:44:03;101159.50;;;6.25;100.00
79645;BME280;69117;47.148;18.954;2024-01-27T01:47:05;101150.41;;;6.31;100.00
79645;BME280;69117;47.148;18.954;2024-01-27T01:50:07;101165.72;;;6.24;100.00
79645;BME280;69117;47.148;18.954;2024-01-27T01:53:09;101176.94;;;6.26;100.00
79645;BME280;69117;47.148;18.954;2024-01-27T01:56:14;101168.06;;;6.14;100.00
79645;BME280;69117;47.148;18.954;2024-01-27T01:59:15;101189.78;;;6.16;100.00
79645;BME280;69117;47.148;18.954;2024-01-27T02:02:17;101198.59;;;6.30;100.00
79645;BME280;69117;47.148;18.954;2024-01-27T02:05:19;101190.63;;;6.31;100.00
79645;BME280;69117;47.148;18.954;2024-01-27T02:08:21;101188.56;;;6.36;100.00
79645;BME280;69117;47.148;18.954;2024-01-27T02:11:23;101178.13;;;6.35;100.00
79645;BME280;69117;47.148;18.954;2024-01-27T02:14:24;101189.47;;;6.35;100.00
79645;BME280;69117;47.148;18.954;2024-01-27T02:17:28;101164.97;;;6.22;100.00
79645;BME280;69117;47.148;18.954;2024-01-27T02:20:30;101165.59;;;6.26;100.00
79645;BME280;69117;47.148;18.954;2024-01-27T02:23:32;101151.78;;;6.09;100.00
79645;BME280;69117;47.148;18.954;2024-01-27T02:26:33;101165.53;;;6.13;100.00
79645;BME280;69117;47.148;18.954;2024-01-27T02:29:35;101163.03;;;5.97;100.00
79645;BME280;69117;47.148;18.954;2024-01-27T02:32:37;101177.34;;;6.06;100.00
79645;BME280;69117;47.148;18.954;2024-01-27T02:35:39;101183.41;;;5.92;100.00
79645;BME280;69117;47.148;18.954;2024-01-27T02:38:40;101199.09;;;5.93;100.00
79645;BME280;69117;47.148;18.954;2024-01-27T02:41:42;101190.44;;;5.91;100.00
79645;BME280;69117;47.148;18.954;2024-01-27T02:44:46;101205.50;;;5.88;100.00
79645;BME280;69117;47.148;18.954;2024-01-27T02:47:48;101219.72;;;5.84;100.00
79645;BME280;69117;47.148;18.954;2024-01-27T02:50:50;101210.47;;;5.78;100.00
79645;BME280;69117;47.148;18.954;2024-01-27T02:53:52;101228.78;;;5.64;100.00
79645;BME280;69117;47.148;18.954;2024-01-27T02:56:53;101226.19;;;5.64;100.00
79645;BME280;69117;47.148;18.954;2024-01-27T02:59:55;101233.81;;;5.53;100.00
79645;BME280;69117;47.148;18.954;2024-01-27T03:02:57;101225.97;;;5.53;100.00
79645;BME280;69117;47.148;18.954;2024-01-27T03:06:00;101234.66;;;5.53;100.00
79645;BME280;69117;47.148;18.954;2024-01-27T03:09:01;101244.13;;;5.56;100.00
79645;BME280;69117;47.148;18.954;2024-01-27T03:12:03;101256.19;;;5.58;100.00
79645;BME280;69117;47.148;18.954;2024-01-27T03:15:05;101253.19;;;5.50;100.00
79645;BME280;69117;47.148;18.954;2024-01-27T03:18:07;101253.47;;;5.45;100.00
79645;BME280;69117;47.148;18.954;2024-01-27T03:21:09;101260.56;;;5.43;100.00
79645;BME280;69117;47.148;18.954;2024-01-27T03:24:10;101267.09;;;5.36;100.00
79645;BME280;69117;47.148;18.954;2024-01-27T03:27:12;101272.44;;;5.19;100.00
79645;BME280;69117;47.148;18.954;2024-01-27T03:30:14;101270.00;;;5.16;100.00
79645;BME280;69117;47.148;18.954;2024-01-27T03:33:16;101274.31;;;5.01;100.00
79645;BME280;69117;47.148;18.954;2024-01-27T03:36:18;101298.16;;;4.96;100.00
79645;BME280;69117;47.148;18.954;2024-01-27T03:39:20;101307.00;;;5.10;100.00
79645;BME280;69117;47.148;18.954;2024-01-27T03:42:21;101307.34;;;5.03;100.00
79645;BME280;69117;47.148;18.954;2024-01-27T03:45:25;101324.50;;;5.09;100.00
79645;BME280;69117;47.148;18.954;2024-01-27T03:48:27;101346.97;;;5.13;100.00
79645;BME280;69117;47.148;18.954;2024-01-27T03:51:29;101347.41;;;5.05;100.00
79645;BME280;69117;47.148;18.954;2024-01-27T03:54:30;101356.50;;;4.98;100.00
79645;BME280;69117;47.148;18.954;2024-01-27T03:57:32;101344.50;;;4.94;100.00
79645;BME280;69117;47.148;18.954;2024-01-27T04:00:34;101369.06;;;4.76;100.00
79645;BME280;69117;47.148;18.954;2024-01-27T04:03:36;101360.03;;;4.81;100.00
79645;BME280;69117;47.148;18.954;2024-01-27T04:06:39;101361.50;;;4.87;100.00
79645;BME280;69117;47.148;18.954;2024-01-27T04:09:41;101362.84;;;4.78;100.00
79645;BME280;69117;47.148;18.954;2024-01-27T04:12:43;101391.81;;;4.91;100.00
79645;BME280;69117;47.148;18.954;2024-01-27T04:15:45;101383.06;;;4.75;100.00
79645;BME280;69117;47.148;18.954;2024-01-27T04:18:46;101408.50;;;4.73;100.00
79645;BME280;69117;47.148;18.954;2024-01-27T04:21:49;101415.34;;;4.75;100.00
79645;BME280;69117;47.148;18.954;2024-01-27T04:24:50;101420.97;;;4.68;100.00
79645;BME280;69117;47.148;18.954;2024-01-27T04:27:52;101418.06;;;4.56;100.00
79645;BME280;69117;47.148;18.954;2024-01-27T04:30:54;101406.34;;;4.64;100.00
79645;BME280;69117;47.148;18.954;2024-01-27T04:33:56;101418.44;;;4.66;100.00
79645;BME280;69117;47.148;18.954;2024-01-27T04:36:57;101412.13;;;4.53;100.00
79645;BME280;69117;47.148;18.954;2024-01-27T04:39:59;101412.91;;;4.55;100.00
79645;BME280;69117;47.148;18.954;2024-01-27T04:43:01;101440.22;;;4.67;100.00
79645;BME280;69117;47.148;18.954;2024-01-27T04:46:02;101439.69;;;4.60;100.00
79645;BME280;69117;47.148;18.954;2024-01-27T04:49:04;101437.91;;;4.61;100.00
79645;BME280;69117;47.148;18.954;2024-01-27T04:52:06;101439.22;;;4.69;100.00
79645;BME280;69117;47.148;18.954;2024-01-27T04:55:08;101436.03;;;4.63;100.00
79645;BME280;69117;47.148;18.954;2024-01-27T04:58:09;101436.03;;;4.63;100.00
79645;BME280;69117;47.148;18.954;2024-01-27T05:01:11;101450.22;;;4.76;100.00
79645;BME280;69117;47.148;18.954;2024-01-27T05:04:13;101441.69;;;4.72;100.00
79645;BME280;69117;47.148;18.954;2024-01-27T05:07:15;101447.06;;;5.02;100.00
79645;BME280;69117;47.148;18.954;2024-01-27T05:10:17;101454.94;;;5.02;100.00
79645;BME280;69117;47.148;18.954;2024-01-27T05:13:18;101456.50;;;5.05;100.00
79645;BME280;69117;47.148;18.954;2024-01-27T05:16:20;101461.22;;;4.98;100.00
79645;BME280;69117;47.148;18.954;2024-01-27T05:19:21;101455.56;;;4.90;100.00
79645;BME280;69117;47.148;18.954;2024-01-27T05:22:24;101430.97;;;4.93;100.00
79645;BME280;69117;47.148;18.954;2024-01-27T05:25:26;101447.25;;;4.99;100.00
79645;BME280;69117;47.148;18.954;2024-01-27T05:28:28;101454.81;;;4.88;100.00
79645;BME280;69117;47.148;18.954;2024-01-27T05:31:29;101458.66;;;4.81;100.00
79645;BME280;69117;47.148;18.954;2024-01-27T05:34:31;101443.69;;;4.50;100.00
79645;BME280;69117;47.148;18.954;2024-01-27T05:37:33;101445.69;;;4.62;100.00
79645;BME280;69117;47.148;18.954;2024-01-27T05:40:34;101456.00;;;4.48;100.00
79645;BME280;69117;47.148;18.954;2024-01-27T05:43:41;101460.00;;;4.72;100.00
79645;BME280;69117;47.148;18.954;2024-01-27T05:46:42;101472.75;;;4.78;100.00
79645;BME280;69117;47.148;18.954;2024-01-27T05:49:44;101480.81;;;4.91;100.00
79645;BME280;69117;47.148;18.954;2024-01-27T05:52:46;101492.94;;;4.76;100.00
79645;BME280;69117;47.148;18.954;2024-01-27T05:55:48;101480.84;;;4.74;100.00
79645;BME280;69117;47.148;18.954;2024-01-27T05:58:49;101469.06;;;4.65;100.00
79645;BME280;69117;47.148;18.954;2024-01-27T06:01:51;101490.16;;;4.62;100.00
79645;BME280;69117;47.148;18.954;2024-01-27T06:04:53;101489.16;;;4.82;100.00
79645;BME280;69117;47.148;18.954;2024-01-27T06:07:54;101494.25;;;4.68;100.00
79645;BME280;69117;47.148;18.954;2024-01-27T06:10:56;101514.97;;;4.72;100.00
79645;BME280;69117;47.148;18.954;2024-01-27T06:13:57;101506.22;;;4.72;100.00
79645;BME280;69117;47.148;18.954;2024-01-27T06:17:00;101513.88;;;4.59;100.00
79645;BME280;69117;47.148;18.954;2024-01-27T06:20:02;101532.28;;;4.57;100.00
79645;BME280;69117;47.148;18.954;2024-01-27T06:23:05;101535.44;;;4.64;100.00
79645;BME280;69117;47.148;18.954;2024-01-27T06:26:08;101541.81;;;4.58;100.00
79645;BME280;69117;47.148;18.954;2024-01-27T06:29:10;101552.97;;;4.62;100.00
79645;BME280;69117;47.148;18.954;2024-01-27T06:32:12;101557.03;;;4.50;100.00
79645;BME280;69117;47.148;18.954;2024-01-27T06:35:14;101566.75;;;4.48;100.00
79645;BME280;69117;47.148;18.954;2024-01-27T06:38:16;101568.47;;;4.30;100.00
79645;BME280;69117;47.148;18.954;2024-01-27T06:41:18;101589.25;;;4.33;100.00
79645;BME280;69117;47.148;18.954;2024-01-27T06:44:19;101589.34;;;4.49;100.00
79645;BME280;69117;47.148;18.954;2024-01-27T06:47:21;101585.38;;;4.42;100.00
79645;BME280;69117;47.148;18.954;2024-01-27T06:50:23;101585.22;;;4.63;100.00
79645;BME280;69117;47.148;18.954;2024-01-27T06:53:24;101593.50;;;4.53;100.00
79645;BME280;69117;47.148;18.954;2024-01-27T06:56:26;101598.16;;;4.66;100.00
79645;BME280;69117;47.148;18.954;2024-01-27T06:59:28;101604.31;;;4.65;100.00
79645;BME280;69117;47.148;18.954;2024-01-27T07:02:30;101610.41;;;4.82;100.00
79645;BME280;69117;47.148;18.954;2024-01-27T07:05:31;101600.78;;;4.83;100.00
79645;BME280;69117;47.148;18.954;2024-01-27T07:08:35;101602.22;;;4.71;100.00
79645;BME280;69117;47.148;18.954;2024-01-27T07:11:39;101611.72;;;4.74;100.00
79645;BME280;69117;47.148;18.954;2024-01-27T07:14:41;101615.84;;;4.78;100.00
79645;BME280;69117;47.148;18.954;2024-01-27T07:17:42;101622.41;;;4.87;100.00
79645;BME280;69117;47.148;18.954;2024-01-27T07:20:44;101607.88;;;4.98;100.00
79645;BME280;69117;47.148;18.954;2024-01-27T07:23:46;101612.25;;;5.15;100.00
79645;BME280;69117;47.148;18.954;2024-01-27T07:26:48;101631.28;;;5.19;100.00
79645;BME280;69117;47.148;18.954;2024-01-27T07:29:49;101628.19;;;5.28;100.00
79645;BME280;69117;47.148;18.954;2024-01-27T07:32:51;101641.91;;;5.33;100.00
79645;BME280;69117;47.148;18.954;2024-01-27T07:35:53;101650.91;;;5.45;100.00
79645;BME280;69117;47.148;18.954;2024-01-27T07:38:54;101653.44;;;5.46;100.00
79645;BME280;69117;47.148;18.954;2024-01-27T07:41:56;101661.84;;;5.53;100.00
79645;BME280;69117;47.148;18.954;2024-01-27T07:44:58;101660.59;;;5.60;100.00
79645;BME280;69117;47.148;18.954;2024-01-27T07:48:00;101653.09;;;5.70;100.00
79645;BME280;69117;47.148;18.954;2024-01-27T07:51:03;101659.88;;;5.74;100.00
79645;BME280;69117;47.148;18.954;2024-01-27T07:54:04;101677.16;;;5.78;100.00
79645;BME280;69117;47.148;18.954;2024-01-27T07:57:06;101670.88;;;5.81;100.00
79645;BME280;69117;47.148;18.954;2024-01-27T08:00:09;101675.94;;;6.01;100.00
79645;BME280;69117;47.148;18.954;2024-01-27T08:03:12;101694.63;;;5.95;100.00
79645;BME280;69117;47.148;18.954;2024-01-27T08:06:20;101696.69;;;6.06;100.00
79645;BME280;69117;47.148;18.954;2024-01-27T08:09:22;101694.97;;;6.05;100.00
79645;BME280;69117;47.148;18.954;2024-01-27T08:12:25;101695.19;;;6.17;100.00
79645;BME280;69117;47.148;18.954;2024-01-27T08:15:27;101697.22;;;6.28;100.00
79645;BME280;69117;47.148;18.954;2024-01-27T08:18:29;101701.69;;;6.26;100.00
79645;BME280;69117;47.148;18.954;2024-01-27T08:21:31;101705.88;;;6.30;100.00
79645;BME280;69117;47.148;18.954;2024-01-27T08:24:32;101692.91;;;6.43;100.00
79645;BME280;69117;47.148;18.954;2024-01-27T08:27:34;101704.94;;;6.31;100.00
79645;BME280;69117;47.148;18.954;2024-01-27T08:30:36;101689.97;;;6.33;100.00
79645;BME280;69117;47.148;18.954;2024-01-27T08:33:39;101681.06;;;6.52;100.00
79645;BME280;69117;47.148;18.954;2024-01-27T08:36:41;101718.50;;;6.55;100.00
79645;BME280;69117;47.148;18.954;2024-01-27T08:39:43;101706.03;;;6.43;100.00
79645;BME280;69117;47.148;18.954;2024-01-27T08:42:45;101722.97;;;6.53;100.00
79645;BME280;69117;47.148;18.954;2024-01-27T08:45:46;101714.69;;;6.45;100.00
79645;BME280;69117;47.148;18.954;2024-01-27T08:48:48;101731.94;;;6.49;100.00
79645;BME280;69117;47.148;18.954;2024-01-27T08:51:50;101743.84;;;6.72;100.00
79645;BME280;69117;47.148;18.954;2024-01-27T08:54:52;101736.44;;;6.47;100.00
79645;BME280;69117;47.148;18.954;2024-01-27T08:57:54;101746.09;;;6.47;100.00
79645;BME280;69117;47.148;18.954;2024-01-27T09:00:56;101747.53;;;6.36;100.00
79645;BME280;69117;47.148;18.954;2024-01-27T09:03:58;101743.84;;;6.23;100.00
79645;BME280;69117;47.148;18.954;2024-01-27T09:07:00;101743.09;;;6.21;100.00
79645;BME280;69117;47.148;18.954;2024-01-27T09:10:02;101762.38;;;6.20;100.00
79645;BME280;69117;47.148;18.954;2024-01-27T09:13:04;101768.88;;;6.46;100.00
79645;BME280;69117;47.148;18.954;2024-01-27T09:16:06;101750.53;;;6.29;100.00
79645;BME280;69117;47.148;18.954;2024-01-27T09:19:09;101768.72;;;6.65;100.00
79645;BME280;69117;47.148;18.954;2024-01-27T09:22:11;101742.63;;;6.62;100.00
79645;BME280;69117;47.148;18.954;2024-01-27T09:25:13;101759.16;;;6.64;100.00
79645;BME280;69117;47.148;18.954;2024-01-27T09:28:15;101753.78;;;6.65;100.00
79645;BME280;69117;47.148;18.954;2024-01-27T09:31:17;101730.50;;;6.59;100.00
79645;BME280;69117;47.148;18.954;2024-01-27T09:34:19;101749.09;;;6.72;100.00
79645;BME280;69117;47.148;18.954;2024-01-27T09:37:21;101753.38;;;6.41;100.00
79645;BME280;69117;47.148;18.954;2024-01-27T09:40:29;101736.09;;;6.53;100.00
79645;BME280;69117;47.148;18.954;2024-01-27T09:43:31;101731.28;;;6.77;100.00
79645;BME280;69117;47.148;18.954;2024-01-27T09:46:33;101738.63;;;6.86;100.00
79645;BME280;69117;47.148;18.954;2024-01-27T09:49:35;101746.53;;;6.55;100.00
79645;BME280;69117;47.148;18.954;2024-01-27T09:52:41;101732.06;;;6.63;100.00
79645;BME280;69117;47.148;18.954;2024-01-27T09:55:43;101746.16;;;6.93;100.00
79645;BME280;69117;47.148;18.954;2024-01-27T09:58:46;101748.69;;;7.10;100.00
79645;BME280;69117;47.148;18.954;2024-01-27T10:01:48;101752.28;;;6.77;100.00
79645;BME280;69117;47.148;18.954;2024-01-27T10:04:50;101760.19;;;6.93;100.00
79645;BME280;69117;47.148;18.954;2024-01-27T10:07:53;101754.53;;;7.15;100.00
79645;BME280;69117;47.148;18.954;2024-01-27T10:10:58;101764.78;;;7.36;100.00
79645;BME280;69117;47.148;18.954;2024-01-27T10:14:00;101755.88;;;7.22;100.00
79645;BME280;69117;47.148;18.954;2024-01-27T10:17:02;101763.81;;;7.37;100.00
79645;BME280;69117;47.148;18.954;2024-01-27T10:20:05;101770.38;;;7.14;100.00
79645;BME280;69117;47.148;18.954;2024-01-27T10:23:11;101763.69;;;7.08;100.00
79645;BME280;69117;47.148;18.954;2024-01-27T10:26:13;101733.41;;;7.32;100.00
79645;BME280;69117;47.148;18.954;2024-01-27T10:29:14;101763.47;;;7.43;100.00
79645;BME280;69117;47.148;18.954;2024-01-27T10:32:16;101740.28;;;7.49;100.00
79645;BME280;69117;47.148;18.954;2024-01-27T10:35:19;101734.78;;;7.68;100.00
79645;BME280;69117;47.148;18.954;2024-01-27T10:38:20;101727.06;;;7.65;100.00
79645;BME280;69117;47.148;18.954;2024-01-27T10:41:23;101715.34;;;7.56;100.00
79645;BME280;69117;47.148;18.954;2024-01-27T10:44:26;101729.75;;;8.08;100.00
79645;BME280;69117;47.148;18.954;2024-01-27T10:47:30;101712.00;;;8.12;100.00
79645;BME280;69117;47.148;18.954;2024-01-27T10:50:37;101722.97;;;8.18;100.00
79645;BME280;69117;47.148;18.954;2024-01-27T10:53:49;101715.78;;;8.78;100.00
79645;BME280;69117;47.148;18.954;2024-01-27T10:56:58;101699.44;;;8.58;100.00
79645;BME280;69117;47.148;18.954;2024-01-27T11:00:01;101720.03;;;9.20;100.00
79645;BME280;69117;47.148;18.954;2024-01-27T11:03:06;101718.09;;;8.12;100.00
79645;BME280;69117;47.148;18.954;2024-01-27T11:06:11;101703.41;;;8.51;100.00
79645;BME280;69117;47.148;18.954;2024-01-27T11:09:13;101703.03;;;8.29;100.00
79645;BME280;69117;47.148;18.954;2024-01-27T11:12:16;101687.34;;;7.98;100.00
79645;BME280;69117;47.148;18.954;2024-01-27T11:15:18;101726.16;;;8.66;100.00
79645;BME280;69117;47.148;18.954;2024-01-27T11:18:20;101717.06;;;8.85;100.00
79645;BME280;69117;47.148;18.954;2024-01-27T11:21:22;101710.94;;;8.84;100.00
79645;BME280;69117;47.148;18.954;2024-01-27T11:24:24;101722.69;;;8.93;100.00
79645;BME280;69117;47.148;18.954;2024-01-27T11:27:29;101714.56;;;8.96;100.00
79645;BME280;69117;47.148;18.954;2024-01-27T11:30:31;101702.34;;;9.86;100.00
79645;BME280;69117;47.148;18.954;2024-01-27T11:33:43;101710.84;;;9.26;100.00
79645;BME280;69117;47.148;18.954;2024-01-27T11:36:48;101698.00;;;9.34;100.00
79645;BME280;69117;47.148;18.954;2024-01-27T11:39:50;101686.03;;;9.15;100.00
79645;BME280;69117;47.148;18.954;2024-01-27T11:42:57;101697.78;;;9.24;100.00
79645;BME280;69117;47.148;18.954;2024-01-27T11:46:00;101714.47;;;8.98;100.00
79645;BME280;69117;47.148;18.954;2024-01-27T11:49:03;101714.38;;;8.99;100.00
79645;BME280;69117;47.148;18.954;2024-01-27T11:52:06;101708.16;;;9.53;100.00
79645;BME280;69117;47.148;18.954;2024-01-27T11:55:09;101709.38;;;9.22;100.00
79645;BME280;69117;47.148;18.954;2024-01-27T11:58:10;101706.19;;;9.16;100.00
79645;BME280;69117;47.148;18.954;2024-01-27T12:01:12;101688.59;;;7.93;100.00
79645;BME280;69117;47.148;18.954;2024-01-27T12:04:14;101713.16;;;8.63;100.00
79645;BME280;69117;47.148;18.954;2024-01-27T12:07:16;101728.88;;;8.92;100.00
79645;BME280;69117;47.148;18.954;2024-01-27T12:10:21;101719.81;;;9.23;100.00
79645;BME280;69117;47.148;18.954;2024-01-27T12:13:24;101721.53;;;8.97;100.00
79645;BME280;69117;47.148;18.954;2024-01-27T12:16:26;101722.09;;;9.02;100.00
79645;BME280;69117;47.148;18.954;2024-01-27T12:19:28;101738.72;;;9.30;100.00
79645;BME280;69117;47.148;18.954;2024-01-27T12:22:30;101731.47;;;9.59;100.00
79645;BME280;69117;47.148;18.954;2024-01-27T12:25:32;101739.06;;;9.38;100.00
79645;BME280;69117;47.148;18.954;2024-01-27T12:28:34;101729.38;;;9.11;99.35
79645;BME280;69117;47.148;18.954;2024-01-27T12:31:39;101744.69;;;9.72;99.42
79645;BME280;69117;47.148;18.954;2024-01-27T12:34:42;101742.81;;;9.34;100.00
79645;BME280;69117;47.148;18.954;2024-01-27T12:37:44;101740.13;;;9.08;100.00
79645;BME280;69117;47.148;18.954;2024-01-27T12:40:45;101742.34;;;8.03;100.00
79645;BME280;69117;47.148;18.954;2024-01-27T12:43:47;101737.25;;;7.41;100.00
79645;BME280;69117;47.148;18.954;2024-01-27T12:46:49;101739.63;;;7.16;100.00
79645;BME280;69117;47.148;18.954;2024-01-27T12:49:51;101727.09;;;7.05;100.00
79645;BME280;69117;47.148;18.954;2024-01-27T12:52:53;101707.03;;;6.88;100.00
79645;BME280;69117;47.148;18.954;2024-01-27T12:55:55;101720.16;;;7.04;100.00
79645;BME280;69117;47.148;18.954;2024-01-27T12:58:57;101705.72;;;6.81;100.00
79645;BME280;69117;47.148;18.954;2024-01-27T13:02:00;101718.72;;;6.82;100.00
79645;BME280;69117;47.148;18.954;2024-01-27T13:05:02;101726.44;;;6.85;100.00
79645;BME280;69117;47.148;18.954;2024-01-27T13:08:04;101709.34;;;6.78;100.00
79645;BME280;69117;47.148;18.954;2024-01-27T13:11:06;101703.09;;;6.81;100.00
79645;BME280;69117;47.148;18.954;2024-01-27T13:14:08;101712.66;;;6.82;100.00
79645;BME280;69117;47.148;18.954;2024-01-27T13:17:11;101715.75;;;6.88;100.00
79645;BME280;69117;47.148;18.954;2024-01-27T13:20:12;101699.19;;;6.72;100.00
79645;BME280;69117;47.148;18.954;2024-01-27T13:23:18;101699.59;;;6.64;100.00
79645;BME280;69117;47.148;18.954;2024-01-27T13:26:20;101722.38;;;6.64;100.00
79645;BME280;69117;47.148;18.954;2024-01-27T13:29:24;101709.84;;;6.53;100.00
79645;BME280;69117;47.148;18.954;2024-01-27T13:32:25;101710.94;;;6.65;100.00
79645;BME280;69117;47.148;18.954;2024-01-27T13:35:27;101717.22;;;6.62;100.00
79645;BME280;69117;47.148;18.954;2024-01-27T13:38:29;101737.97;;;6.67;100.00
79645;BME280;69117;47.148;18.954;2024-01-27T13:41:37;101750.66;;;6.59;100.00
79645;BME280;69117;47.148;18.954;2024-01-27T13:44:40;101746.25;;;6.59;100.00
79645;BME280;69117;47.148;18.954;2024-01-27T13:47:42;101740.78;;;6.48;100.00
79645;BME280;69117;47.148;18.954;2024-01-27T13:50:43;101743.19;;;6.35;100.00
79645;BME280;69117;47.148;18.954;2024-01-27T13:53:47;101729.72;;;6.26;100.00
79645;BME280;69117;47.148;18.954;2024-01-27T13:56:48;101720.56;;;6.17;100.00
79645;BME280;69117;47.148;18.954;2024-01-27T13:59:50;101725.91;;;6.15;100.00
79645;BME280;69117;47.148;18.954;2024-01-27T14:02:52;101711.81;;;6.01;100.00
79645;BME280;69117;47.148;18.954;2024-01-27T14:05:54;101742.97;;;6.07;100.00
79645;BME280;69117;47.148;18.954;2024-01-27T14:08:55;101737.13;;;6.02;100.00
79645;BME280;69117;47.148;18.954;2024-01-27T14:11:57;101729.28;;;5.84;100.00
79645;BME280;69117;47.148;18.954;2024-01-27T14:15:03;101718.06;;;5.81;100.00
79645;BME280;69117;47.148;18.954;2024-01-27T14:18:08;101719.19;;;5.94;100.00
79645;BME280;69117;47.148;18.954;2024-01-27T14:21:11;101735.75;;;5.94;100.00
79645;BME280;69117;47.148;18.954;2024-01-27T14:24:13;101736.69;;;5.93;100.00
79645;BME280;69117;47.148;18.954;2024-01-27T14:27:15;101733.25;;;5.91;100.00
79645;BME280;69117;47.148;18.954;2024-01-27T14:30:19;101724.25;;;5.80;100.00
79645;BME280;69117;47.148;18.954;2024-01-27T14:33:20;101733.97;;;5.78;100.00
79645;BME280;69117;47.148;18.954;2024-01-27T14:36:24;101736.31;;;5.66;100.00
79645;BME280;69117;47.148;18.954;2024-01-27T14:39:27;101750.31;;;5.65;100.00
79645;BME280;69117;47.148;18.954;2024-01-27T14:42:29;101741.09;;;5.58;100.00
79645;BME280;69117;47.148;18.954;2024-01-27T14:45:34;101752.88;;;5.67;100.00
79645;BME280;69117;47.148;18.954;2024-01-27T14:48:37;101755.56;;;5.65;100.00
79645;BME280;69117;47.148;18.954;2024-01-27T14:51:39;101753.66;;;5.69;100.00
79645;BME280;69117;47.148;18.954;2024-01-27T14:54:41;101769.53;;;5.66;100.00
79645;BME280;69117;47.148;18.954;2024-01-27T14:57:42;101766.06;;;5.65;100.00
79645;BME280;69117;47.148;18.954;2024-01-27T15:00:47;101776.53;;;5.65;100.00
79645;BME280;69117;47.148;18.954;2024-01-27T15:03:55;101773.38;;;5.76;100.00
79645;BME280;69117;47.148;18.954;2024-01-27T15:06:57;101782.34;;;5.72;100.00
79645;BME280;69117;47.148;18.954;2024-01-27T15:09:59;101772.75;;;5.71;100.00
79645;BME280;69117;47.148;18.954;2024-01-27T15:13:01;101769.81;;;5.77;100.00
79645;BME280;69117;47.148;18.954;2024-01-27T15:16:03;101768.91;;;5.78;100.00
79645;BME280;69117;47.148;18.954;2024-01-27T15:19:05;101767.47;;;5.72;100.00
79645;BME280;69117;47.148;18.954;2024-01-27T15:22:07;101770.28;;;5.68;100.00
79645;BME280;69117;47.148;18.954;2024-01-27T15:25:10;101759.50;;;5.57;100.00
79645;BME280;69117;47.148;18.954;2024-01-27T15:28:12;101764.88;;;5.54;100.00
79645;BME280;69117;47.148;18.954;2024-01-27T15:31:14;101769.28;;;5.53;100.00
79645;BME280;69117;47.148;18.954;2024-01-27T15:34:15;101747.56;;;5.51;100.00
79645;BME280;69117;47.148;18.954;2024-01-27T15:37:17;101767.66;;;5.50;100.00
79645;BME280;69117;47.148;18.954;2024-01-27T15:40:19;101760.19;;;5.43;100.00